Terminal Aerodrome Forecast
Issued by NWS

Home | Current Version | Previous Version | Text Only | Print | Product List | Glossary On
Versions: 1 2 3 4 5 6 7 8 9 10 11 12 13 14 15
000
FTUS43 KILX 211700
TAFDEC
TAF
KDEC 211721Z 2118/2218 01009G20KT P6SM SCT040
     FM220000 04004KT P6SM SKC
      TEMPO 2210/2212 4SM BR=

USA.gov is the U.S. government's official web portal to all federal, state and local government web resources and services.